Withamsville, Ohio
Current Conditions -  °F | °C
As of 6:53 PM on Wednesday 26 Nov 2014 (Local Time) from KLUK Reporting Station
Clear Clear  
Wind Chill: 30°   Ceiling: Unl
Heat Index: 34°   Visibility: 10mi
Dew Point: 26°   Wind: 5mph
Humidity: 73%   Direction: 50°NE
Pressure: 30.06"   Gusts: NA
Location:  39.0659°N, 84.278°W
Report Text: KLUK 262353Z 05004KT 10SM CLR 01/M03 A3006 RMK AO2 SLP184 T00111033 10044 20011 55002
Loading
Personal Weather Stations






























Interactive Weather Map New forecast layout! Learn more

10-Day Weather Forecast

Advertisements
Track Severe Weather on mobile